createdAt,value
2022-09-11T00:01:08.373Z,18.15
2022-09-11T00:03:37.337Z,17.95
2022-09-11T00:06:10.635Z,18.51
2022-09-11T00:08:39.733Z,18.31
2022-09-11T00:11:10.045Z,18.44
2022-09-11T00:13:39.644Z,18.22
2022-09-11T00:16:18.890Z,17.91
2022-09-11T00:18:46.896Z,17.98
2022-09-11T00:21:16.829Z,17.95
2022-09-11T00:23:44.932Z,17.89
2022-09-11T00:26:13.042Z,17.47
2022-09-11T00:28:40.799Z,18.12
2022-09-11T00:31:11.543Z,17.94
2022-09-11T00:33:40.072Z,18.05
2022-09-11T00:36:10.198Z,18.08
2022-09-11T00:38:40.222Z,18.11
2022-09-11T00:41:11.595Z,18.47
2022-09-11T00:44:00.607Z,18.06
2022-09-11T00:46:35.640Z,17.78
2022-09-11T00:49:07.711Z,17.62
2022-09-11T00:51:37.823Z,17.96
2022-09-11T00:54:07.241Z,17.74
2022-09-11T00:56:38.371Z,17.78
2022-09-11T00:59:07.779Z,17.93
2022-09-11T01:01:35.661Z,18.36
2022-09-11T01:04:05.130Z,18.61
2022-09-11T01:06:33.652Z,18.05
2022-09-11T01:09:01.442Z,18.41
2022-09-11T01:11:44.733Z,18.36
2022-09-11T01:14:34.621Z,18.42
2022-09-11T01:17:19.321Z,18.26
2022-09-11T01:20:06.273Z,18.11
2022-09-11T01:22:53.291Z,17.95
2022-09-11T01:25:28.505Z,18.12
2022-09-11T01:28:00.917Z,17.86
2022-09-11T01:30:34.484Z,18.02
2022-09-11T01:33:11.688Z,17.82
2022-09-11T01:35:49.537Z,18.15
2022-09-11T01:38:22.882Z,18.08
2022-09-11T01:40:55.537Z,18.71
2022-09-11T01:43:30.556Z,18.90
2022-09-11T01:46:00.424Z,18.72
2022-09-11T01:48:34.341Z,18.96
2022-09-11T01:51:04.504Z,18.86
2022-09-11T01:53:37.979Z,18.88
2022-09-11T01:56:10.834Z,18.96
2022-09-11T01:58:43.504Z,18.98
2022-09-11T02:01:15.978Z,19.00
2022-09-11T02:03:48.234Z,18.90
2022-09-11T02:06:22.782Z,18.88
2022-09-11T02:08:55.043Z,18.64
2022-09-11T02:11:23.742Z,18.65
2022-09-11T02:13:58.543Z,18.75
2022-09-11T02:16:40.396Z,19.08
2022-09-11T02:19:12.374Z,18.55
2022-09-11T02:21:40.744Z,18.86
2022-09-11T02:24:09.455Z,18.90
2022-09-11T02:26:41.092Z,18.86
2022-09-11T02:29:10.373Z,18.93
2022-09-11T02:31:38.515Z,18.70
2022-09-11T02:34:06.278Z,18.89
2022-09-11T02:36:55.894Z,18.80
2022-09-11T02:39:42.095Z,18.87
2022-09-11T02:42:27.294Z,18.64
2022-09-11T02:45:07.304Z,18.57
2022-09-11T02:47:44.533Z,18.59
2022-09-11T02:50:23.681Z,18.58
2022-09-11T02:53:03.494Z,18.65
2022-09-11T02:55:42.704Z,18.67
2022-09-11T02:58:17.489Z,18.85
2022-09-11T03:00:48.127Z,18.78
2022-09-11T03:03:16.014Z,18.82
2022-09-11T03:05:44.007Z,18.59
2022-09-11T03:08:12.978Z,18.73
2022-09-11T03:10:40.711Z,18.63
2022-09-11T03:13:08.413Z,18.89
2022-09-11T03:15:36.133Z,18.86
2022-09-11T03:18:05.725Z,18.89
2022-09-11T03:20:34.188Z,18.88
2022-09-11T03:23:01.956Z,18.72
2022-09-11T03:25:29.797Z,18.93
2022-09-11T03:27:57.493Z,19.00
2022-09-11T03:30:25.263Z,19.08
2022-09-11T03:32:53.220Z,18.99
2022-09-11T03:35:22.337Z,19.12
2022-09-11T03:37:50.469Z,19.05
2022-09-11T03:40:20.229Z,19.09
2022-09-11T03:42:47.944Z,18.97
2022-09-11T03:45:15.910Z,19.02
2022-09-11T03:47:44.142Z,18.68
2022-09-11T03:50:12.839Z,18.66
2022-09-11T03:52:43.443Z,18.73
2022-09-11T03:55:11.542Z,18.85
2022-09-11T03:57:40.547Z,19.12
2022-09-11T04:00:10.039Z,18.93
2022-09-11T04:02:37.781Z,18.80
2022-09-11T04:05:06.329Z,18.96
2022-09-11T04:07:34.593Z,18.96
2022-09-11T04:10:03.772Z,18.86
2022-09-11T04:12:31.495Z,19.11
2022-09-11T04:14:59.208Z,19.12
2022-09-11T04:17:26.904Z,19.10
2022-09-11T04:19:54.598Z,19.08
2022-09-11T04:22:23.940Z,19.04
2022-09-11T04:24:51.938Z,19.22
2022-09-11T04:27:23.366Z,19.03
2022-09-11T04:29:51.843Z,19.20
2022-09-11T04:32:19.567Z,19.22
2022-09-11T04:34:47.281Z,19.12
2022-09-11T04:37:16.548Z,19.00
2022-09-11T04:39:44.476Z,18.83
2022-09-11T04:42:12.525Z,19.17
2022-09-11T04:44:42.056Z,19.05
2022-09-11T04:47:09.776Z,19.00
2022-09-11T04:49:37.454Z,19.00
2022-09-11T04:52:07.260Z,19.05
2022-09-11T04:54:36.882Z,19.19
2022-09-11T04:57:04.832Z,19.06
2022-09-11T04:59:32.625Z,19.28
2022-09-11T05:02:01.732Z,19.19
2022-09-11T05:04:29.435Z,19.29
2022-09-11T05:06:57.154Z,19.71
2022-09-11T05:09:25.203Z,19.63
2022-09-11T05:11:52.953Z,19.61
2022-09-11T05:14:20.705Z,19.33
2022-09-11T05:16:48.571Z,19.32
2022-09-11T05:19:17.727Z,19.29
2022-09-11T05:21:45.627Z,19.43
2022-09-11T05:24:13.351Z,19.42
2022-09-11T05:26:41.102Z,19.82
2022-09-11T05:29:11.842Z,19.55
2022-09-11T05:31:39.807Z,20.10
2022-09-11T05:34:08.667Z,19.42
2022-09-11T05:36:38.059Z,19.48
2022-09-11T05:39:05.948Z,19.78
2022-09-11T05:41:33.652Z,19.98
2022-09-11T05:44:01.379Z,19.78
2022-09-11T05:46:29.104Z,20.20
2022-09-11T05:48:56.794Z,20.36
2022-09-11T05:51:24.485Z,20.24
2022-09-11T05:53:55.496Z,19.90
2022-09-11T05:56:25.060Z,20.08
2022-09-11T05:58:53.190Z,19.70
2022-09-11T06:01:22.568Z,19.91
2022-09-11T06:03:51.101Z,19.67
2022-09-11T06:06:21.189Z,19.77
2022-09-11T06:08:50.132Z,19.51
2022-09-11T06:11:21.705Z,19.79
2022-09-11T06:13:50.371Z,19.58
2022-09-11T06:16:20.481Z,19.72
2022-09-11T06:18:49.985Z,19.72
2022-09-11T06:21:20.582Z,19.84
2022-09-11T06:23:49.242Z,19.95
2022-09-11T06:26:19.991Z,19.95
2022-09-11T06:28:48.137Z,19.99
2022-09-11T06:31:17.452Z,19.92
2022-09-11T06:33:45.836Z,20.06
2022-09-11T06:36:16.298Z,20.05
2022-09-11T06:38:44.847Z,20.09
2022-09-11T06:41:16.301Z,20.45
2022-09-11T06:43:45.784Z,20.18
2022-09-11T06:46:23.009Z,20.47
2022-09-11T06:48:52.316Z,20.17
2022-09-11T06:51:26.172Z,20.61
2022-09-11T06:53:57.938Z,20.41
2022-09-11T06:56:27.089Z,20.45
2022-09-11T06:58:56.618Z,20.83
2022-09-11T07:01:25.242Z,20.54
2022-09-11T07:03:54.337Z,20.49
2022-09-11T07:06:24.203Z,20.43
2022-09-11T07:08:53.315Z,20.45
2022-09-11T07:11:22.657Z,20.28
2022-09-11T07:13:50.419Z,20.79
2022-09-11T07:16:22.555Z,19.65
2022-09-11T07:18:50.312Z,20.37
2022-09-11T07:21:20.960Z,20.98
2022-09-11T07:23:50.417Z,21.16
2022-09-11T07:26:19.690Z,20.93
2022-09-11T07:28:48.875Z,20.91
2022-09-11T07:31:21.040Z,21.41
2022-09-11T07:33:51.948Z,20.78
2022-09-11T07:36:21.506Z,20.83
2022-09-11T07:38:51.035Z,21.13
2022-09-11T07:41:21.316Z,20.80
2022-09-11T07:43:53.586Z,20.35
2022-09-11T07:46:21.663Z,20.32
2022-09-11T07:48:50.744Z,20.03
2022-09-11T07:51:19.866Z,20.18
2022-09-11T07:53:50.093Z,20.23
2022-09-11T07:56:19.733Z,20.57
2022-09-11T07:58:48.023Z,20.45
2022-09-11T08:01:17.576Z,21.14
2022-09-11T08:03:45.704Z,21.38
2022-09-11T08:06:21.883Z,21.36
2022-09-11T08:08:53.452Z,21.49
2022-09-11T08:11:21.997Z,20.91
2022-09-11T08:13:51.700Z,21.25
2022-09-11T08:16:19.989Z,21.28
2022-09-11T08:18:48.569Z,21.48
2022-09-11T08:21:17.965Z,22.06
2022-09-11T08:23:47.395Z,22.08
2022-09-11T08:26:17.526Z,21.92
2022-09-11T08:28:45.767Z,21.49
2022-09-11T08:31:14.316Z,21.93
2022-09-11T08:33:42.169Z,21.73
2022-09-11T08:36:14.654Z,21.22
2022-09-11T08:38:44.746Z,21.53
2022-09-11T08:41:22.425Z,22.10
2022-09-11T08:43:54.815Z,21.85
2022-09-11T08:46:26.508Z,21.81
2022-09-11T08:49:03.758Z,21.81
2022-09-11T08:51:32.292Z,22.36
2022-09-11T08:54:03.469Z,22.16
2022-09-11T08:56:33.467Z,22.18
2022-09-11T08:59:14.991Z,22.40
2022-09-11T09:01:50.139Z,22.68
2022-09-11T09:04:51.619Z,23.00
2022-09-11T09:07:32.102Z,23.50
2022-09-11T09:10:08.260Z,23.59
2022-09-11T09:12:45.673Z,23.88
2022-09-11T09:15:27.417Z,23.51
2022-09-11T09:18:00.889Z,24.56
2022-09-11T09:20:32.909Z,24.52
2022-09-11T09:23:05.034Z,25.61
2022-09-11T09:25:39.440Z,25.35
2022-09-11T09:28:15.909Z,25.14
2022-09-11T09:30:50.434Z,25.17
2022-09-11T09:33:27.358Z,24.38
2022-09-11T09:35:55.501Z,23.41
2022-09-11T09:38:27.321Z,25.09
2022-09-11T09:41:24.282Z,25.14
2022-09-11T09:44:01.068Z,24.15
2022-09-11T09:46:36.508Z,24.84
2022-09-11T09:49:04.734Z,25.48
2022-09-11T09:51:32.519Z,25.48
2022-09-11T09:54:02.607Z,25.51
2022-09-11T09:56:35.544Z,24.88
2022-09-11T09:59:14.275Z,25.34
2022-09-11T10:01:50.880Z,26.00
2022-09-11T10:04:22.535Z,26.05
2022-09-11T10:06:53.021Z,24.50
2022-09-11T10:09:24.269Z,24.26
2022-09-11T10:11:58.205Z,25.24
2022-09-11T10:14:50.012Z,25.29
2022-09-11T10:17:21.516Z,25.47
2022-09-11T10:19:50.834Z,24.73
2022-09-11T10:22:27.592Z,23.95
2022-09-11T10:25:10.591Z,24.89
2022-09-11T10:27:46.754Z,25.29
2022-09-11T10:30:29.911Z,25.38
2022-09-11T10:33:03.482Z,24.62
2022-09-11T10:35:32.647Z,24.20
2022-09-11T10:38:06.952Z,25.59
2022-09-11T10:40:34.750Z,24.01
2022-09-11T10:43:03.837Z,24.48
2022-09-11T10:45:33.327Z,24.16
2022-09-11T10:48:15.851Z,23.53
2022-09-11T10:50:44.938Z,24.69
2022-09-11T10:53:20.301Z,23.76
2022-09-11T10:56:00.156Z,21.90
2022-09-11T10:58:35.208Z,23.11
2022-09-11T11:01:03.033Z,23.78
2022-09-11T11:03:30.922Z,23.21
2022-09-11T11:06:07.780Z,24.03
2022-09-11T11:08:56.348Z,25.12
2022-09-11T11:11:34.885Z,25.47
2022-09-11T11:14:21.166Z,26.15
2022-09-11T11:16:59.586Z,25.48
2022-09-11T11:19:59.770Z,24.33
2022-09-11T11:23:31.684Z,24.17
2022-09-11T11:26:09.088Z,25.57
2022-09-11T11:29:04.274Z,25.42
2022-09-11T11:31:44.495Z,25.34
2022-09-11T11:34:38.202Z,23.46
2022-09-11T11:37:11.708Z,23.11
2022-09-11T11:39:55.511Z,24.27
2022-09-11T11:42:28.878Z,25.15
2022-09-11T11:45:04.030Z,24.40
2022-09-11T11:47:36.558Z,24.37
2022-09-11T11:50:12.575Z,23.25
2022-09-11T11:52:52.326Z,23.89
2022-09-11T11:55:26.022Z,23.38
2022-09-11T11:58:04.826Z,24.23
2022-09-11T12:00:40.057Z,24.62
2022-09-11T12:03:16.141Z,25.46
2022-09-11T12:05:44.041Z,23.93
2022-09-11T12:08:14.805Z,24.87
2022-09-11T12:10:56.454Z,23.51
2022-09-11T12:13:30.723Z,23.52
2022-09-11T12:16:07.314Z,24.91
2022-09-11T12:18:38.510Z,24.46
2022-09-11T12:21:42.040Z,23.80
2022-09-11T12:24:18.687Z,23.50
2022-09-11T12:26:48.080Z,24.29
2022-09-11T12:29:52.693Z,25.08
2022-09-11T12:32:29.701Z,25.62
2022-09-11T12:35:03.924Z,24.74
2022-09-11T12:37:38.540Z,24.79
2022-09-11T12:40:17.048Z,26.68
2022-09-11T12:42:57.313Z,25.50
2022-09-11T12:45:47.839Z,24.55
2022-09-11T12:48:18.040Z,24.86
2022-09-11T12:50:55.169Z,24.75
2022-09-11T12:53:27.396Z,25.56
2022-09-11T12:55:59.841Z,26.54
2022-09-11T12:58:34.109Z,27.12
2022-09-11T13:01:06.930Z,26.65
2022-09-11T13:03:36.079Z,25.71
2022-09-11T13:06:07.909Z,25.55
2022-09-11T13:08:39.837Z,27.17
2022-09-11T13:11:40.133Z,26.68
2022-09-11T13:14:49.359Z,26.34
2022-09-11T13:17:25.799Z,25.96
2022-09-11T13:19:57.731Z,26.21
2022-09-11T13:22:27.656Z,25.80
2022-09-11T13:25:07.353Z,24.84
2022-09-11T13:27:39.107Z,25.33
2022-09-11T13:30:09.792Z,24.80
2022-09-11T13:32:37.610Z,24.43
2022-09-11T13:35:11.060Z,26.86
2022-09-11T13:37:42.910Z,28.32
2022-09-11T13:40:20.264Z,27.23
2022-09-11T13:42:48.835Z,25.88
2022-09-11T13:45:20.259Z,25.95
2022-09-11T13:47:47.916Z,25.75
2022-09-11T13:50:18.832Z,25.26
2022-09-11T13:52:47.540Z,25.79
2022-09-11T13:55:19.219Z,24.77
2022-09-11T13:57:58.556Z,24.28
2022-09-11T14:00:45.811Z,25.11
2022-09-11T14:03:20.218Z,24.14
2022-09-11T14:05:53.919Z,24.91
2022-09-11T14:08:28.008Z,23.49
2022-09-11T14:10:59.160Z,24.44
2022-09-11T14:13:32.984Z,24.38
2022-09-11T14:16:04.609Z,23.96
2022-09-11T14:18:37.086Z,23.35
2022-09-11T14:21:13.493Z,23.55
2022-09-11T14:23:44.534Z,24.06
2022-09-11T14:26:16.328Z,23.06
2022-09-11T14:28:48.145Z,24.12
2022-09-11T14:31:30.661Z,23.46
2022-09-11T14:34:17.908Z,23.06
2022-09-11T14:36:53.080Z,22.92
2022-09-11T14:39:34.902Z,23.08
2022-09-11T14:42:03.301Z,22.52
2022-09-11T14:44:32.769Z,22.24
2022-09-11T14:47:02.134Z,22.37
2022-09-11T14:49:30.374Z,22.62
2022-09-11T14:51:59.877Z,22.71
2022-09-11T14:54:31.133Z,22.29
2022-09-11T14:56:59.398Z,22.36
2022-09-11T14:59:29.004Z,22.70
2022-09-11T15:01:58.502Z,22.06
2022-09-11T15:04:29.509Z,22.28
2022-09-11T15:06:57.899Z,22.20
2022-09-11T15:09:26.022Z,22.27
2022-09-11T15:11:54.118Z,22.41
2022-09-11T15:14:38.627Z,21.41
2022-09-11T15:17:12.618Z,22.20
2022-09-11T15:19:41.977Z,22.29
2022-09-11T15:22:11.593Z,21.99
2022-09-11T15:24:39.318Z,21.85
2022-09-11T15:27:07.427Z,22.14
2022-09-11T15:29:36.281Z,22.09
2022-09-11T15:32:04.662Z,21.93
2022-09-11T15:34:33.171Z,21.91
2022-09-11T15:37:02.626Z,21.34
2022-09-11T15:39:30.468Z,21.37
2022-09-11T15:41:58.227Z,21.33
2022-09-11T15:44:28.652Z,21.16
2022-09-11T15:46:58.486Z,21.92
2022-09-11T15:49:29.292Z,21.89
2022-09-11T15:51:57.974Z,22.50
2022-09-11T15:54:28.108Z,21.91
2022-09-11T15:56:56.299Z,21.92
2022-09-11T15:59:24.422Z,22.33
2022-09-11T16:01:52.244Z,22.00
2022-09-11T16:04:23.054Z,21.92
2022-09-11T16:06:51.555Z,22.56
2022-09-11T16:09:21.170Z,21.89
2022-09-11T16:12:48.787Z,21.95
2022-09-11T16:15:16.648Z,22.01
2022-09-11T16:20:15.281Z,22.28
2022-09-11T16:22:43.827Z,22.75
2022-09-11T16:25:12.653Z,23.86
2022-09-11T16:27:40.814Z,23.64
2022-09-11T16:30:42.850Z,22.96
2022-09-11T16:33:02.349Z,22.09
2022-09-11T16:35:36.860Z,21.84
2022-09-11T16:38:07.176Z,22.13
2022-09-11T16:40:35.881Z,22.66
2022-09-11T16:43:04.141Z,21.83
2022-09-11T16:45:33.813Z,21.88
2022-09-11T16:48:02.518Z,22.13
2022-09-11T16:50:30.364Z,22.09
2022-09-11T16:53:48.187Z,22.12
2022-09-11T16:56:18.236Z,21.55
2022-09-11T16:58:46.572Z,21.34
2022-09-11T17:01:18.133Z,21.31
2022-09-11T17:03:47.803Z,21.86
2022-09-11T17:06:16.329Z,21.61
2022-09-11T17:08:44.620Z,22.34
2022-09-11T17:11:15.328Z,21.85
2022-09-11T17:13:44.109Z,22.04
2022-09-11T17:16:16.805Z,21.39
2022-09-11T17:18:48.690Z,20.99
2022-09-11T17:21:17.433Z,21.09
2022-09-11T17:23:45.668Z,21.37
2022-09-11T17:26:16.779Z,21.09
2022-09-11T17:28:47.272Z,21.09
2022-09-11T17:31:16.765Z,21.12
2022-09-11T17:33:45.510Z,21.14
2022-09-11T17:36:17.218Z,21.12
2022-09-11T17:38:58.892Z,21.32
2022-09-11T17:41:27.250Z,21.08
2022-09-11T17:43:55.169Z,21.09
2022-09-11T17:46:24.490Z,20.91
2022-09-11T17:48:52.641Z,20.99
2022-09-11T17:51:24.183Z,20.99
2022-09-11T17:53:54.091Z,21.22
2022-09-11T17:56:24.754Z,21.16
2022-09-11T17:58:53.507Z,21.10
2022-09-11T18:01:22.306Z,21.23
2022-09-11T18:03:54.170Z,21.10
2022-09-11T18:06:26.450Z,20.74
2022-09-11T18:08:56.588Z,20.65
2022-09-11T18:11:25.093Z,20.98
2022-09-11T18:13:54.555Z,20.97
2022-09-11T18:16:22.469Z,20.45
2022-09-11T18:18:50.419Z,20.16
2022-09-11T18:21:18.592Z,20.27
2022-09-11T18:23:49.723Z,20.28
2022-09-11T18:26:23.068Z,20.22
2022-09-11T18:28:51.836Z,20.39
2022-09-11T18:31:20.246Z,20.30
2022-09-11T18:33:54.606Z,20.48
2022-09-11T18:36:23.521Z,20.68
2022-09-11T18:38:53.353Z,20.60
2022-09-11T18:41:22.227Z,20.53
2022-09-11T18:43:50.358Z,20.25
2022-09-11T18:46:20.990Z,20.24
2022-09-11T18:48:50.274Z,20.64
2022-09-11T18:51:19.566Z,20.59
2022-09-11T18:53:48.676Z,20.69
2022-09-11T18:56:17.763Z,20.19
2022-09-11T18:58:47.744Z,20.00
2022-09-11T19:01:17.278Z,19.89
2022-09-11T19:03:46.048Z,20.52
2022-09-11T19:06:16.271Z,20.47
2022-09-11T19:08:46.544Z,20.28
2022-09-11T19:11:16.706Z,20.89
2022-09-11T19:13:46.752Z,20.61
2022-09-11T19:16:15.112Z,20.47
2022-09-11T19:18:43.138Z,20.44
2022-09-11T19:21:13.203Z,20.30
2022-09-11T19:23:42.981Z,20.43
2022-09-11T19:26:13.317Z,20.10
2022-09-11T19:28:43.232Z,20.50
2022-09-11T19:31:15.307Z,20.31
2022-09-11T19:33:44.921Z,20.20
2022-09-11T19:36:14.941Z,20.16
2022-09-11T19:38:42.744Z,20.03
2022-09-11T19:41:12.741Z,20.11
2022-09-11T19:43:42.016Z,19.98
2022-09-11T19:46:13.601Z,19.99
2022-09-11T19:48:41.909Z,19.88
2022-09-11T19:51:11.673Z,19.84
2022-09-11T19:53:40.104Z,19.94
2022-09-11T19:56:08.139Z,19.59
2022-09-11T19:58:36.410Z,19.43
2022-09-11T20:01:06.703Z,19.39
2022-09-11T20:03:35.896Z,19.41
2022-09-11T20:06:04.066Z,19.32
2022-09-11T20:08:46.282Z,19.31
2022-09-11T20:11:16.151Z,19.25
2022-09-11T20:13:44.323Z,19.30
2022-09-11T20:16:15.452Z,19.17
2022-09-11T20:18:45.172Z,19.33
2022-09-11T20:21:15.587Z,19.22
2022-09-11T20:23:44.418Z,19.07
2022-09-11T20:26:17.233Z,19.37
2022-09-11T20:28:46.329Z,19.28
2022-09-11T20:31:15.725Z,19.25
2022-09-11T20:33:46.103Z,19.23
2022-09-11T20:36:14.411Z,19.24
2022-09-11T20:38:42.206Z,19.25
2022-09-11T20:41:11.678Z,19.22
2022-09-11T20:43:39.443Z,19.25
2022-09-11T20:46:09.111Z,18.99
2022-09-11T20:48:37.046Z,19.06
2022-09-11T20:51:08.568Z,19.25
2022-09-11T20:53:36.334Z,19.07
2022-09-11T20:56:06.184Z,18.89
2022-09-11T20:58:34.294Z,18.48
2022-09-11T21:01:02.374Z,19.05
2022-09-11T21:03:31.073Z,19.03
2022-09-11T21:06:00.567Z,18.93
2022-09-11T21:08:29.745Z,18.64
2022-09-11T21:11:01.899Z,18.98
2022-09-11T21:13:29.805Z,18.93
2022-09-11T21:15:57.708Z,18.74
2022-09-11T21:18:25.623Z,18.87
2022-09-11T21:20:57.012Z,18.73
2022-09-11T21:23:25.062Z,18.55
2022-09-11T21:25:54.178Z,18.58
2022-09-11T21:28:22.035Z,18.64
2022-09-11T21:30:49.894Z,18.52
2022-09-11T21:33:18.453Z,18.44
2022-09-11T21:35:52.362Z,18.54
2022-09-11T21:38:20.780Z,18.39
2022-09-11T21:40:48.623Z,18.58
2022-09-11T21:43:18.465Z,18.34
2022-09-11T21:45:46.451Z,18.37
2022-09-11T21:48:14.501Z,18.41
2022-09-11T21:50:42.363Z,18.36
2022-09-11T21:53:11.597Z,18.66
2022-09-11T21:55:40.441Z,18.43
2022-09-11T21:58:08.800Z,18.35
2022-09-11T22:00:42.539Z,18.26
2022-09-11T22:03:12.201Z,18.35
2022-09-11T22:05:43.402Z,18.36
2022-09-11T22:08:11.495Z,18.18
2022-09-11T22:10:42.844Z,18.34
2022-09-11T22:13:11.158Z,18.38
2022-09-11T22:15:42.044Z,18.23
2022-09-11T22:18:10.448Z,17.97
2022-09-11T22:20:38.786Z,17.66
2022-09-11T22:23:08.097Z,18.12
2022-09-11T22:25:36.936Z,17.96
2022-09-11T22:28:05.217Z,17.97
2022-09-11T22:30:33.453Z,18.04
2022-09-11T22:33:02.835Z,18.01
2022-09-11T22:35:31.011Z,17.82
2022-09-11T22:37:58.688Z,17.58
2022-09-11T22:40:26.530Z,17.58
2022-09-11T22:42:54.239Z,17.43
2022-09-11T22:45:21.970Z,17.84
2022-09-11T22:47:49.850Z,18.24
2022-09-11T22:50:19.322Z,18.36
2022-09-11T22:52:47.094Z,18.40
2022-09-11T22:55:15.051Z,18.35
2022-09-11T22:57:42.771Z,18.33
2022-09-11T23:00:13.163Z,18.30
2022-09-11T23:02:40.962Z,18.10
2022-09-11T23:05:26.953Z,18.18
2022-09-11T23:07:56.440Z,18.11
2022-09-11T23:10:24.942Z,18.11
2022-09-11T23:12:53.101Z,17.99
2022-09-11T23:15:21.505Z,17.79
2022-09-11T23:17:49.263Z,17.93
2022-09-11T23:20:18.798Z,18.00
2022-09-11T23:22:46.695Z,17.94
2022-09-11T23:25:15.927Z,17.77
2022-09-11T23:27:45.319Z,17.55
2022-09-11T23:30:13.522Z,17.63
2022-09-11T23:32:42.043Z,17.54
2022-09-11T23:35:10.812Z,17.63
2022-09-11T23:37:42.341Z,17.48
2022-09-11T23:40:13.079Z,17.55
2022-09-11T23:42:42.209Z,17.52
2022-09-11T23:45:12.688Z,17.46
2022-09-11T23:47:40.770Z,17.29
2022-09-11T23:50:09.610Z,17.41
2022-09-11T23:52:39.438Z,17.63
2022-09-11T23:55:08.094Z,17.70
2022-09-11T23:57:35.875Z,17.60
